createdAt,value
2022-10-02T00:00:36.642Z,17.62
2022-10-02T00:03:24.705Z,17.58
2022-10-02T00:06:16.531Z,17.60
2022-10-02T00:08:49.256Z,17.59
2022-10-02T00:11:44.389Z,17.59
2022-10-02T00:14:19.578Z,17.53
2022-10-02T00:16:54.343Z,17.48
2022-10-02T00:19:23.111Z,17.39
2022-10-02T00:22:51.248Z,17.34
2022-10-02T00:25:45.631Z,17.33
2022-10-02T00:28:25.370Z,17.30
2022-10-02T00:31:23.852Z,17.24
2022-10-02T00:34:15.004Z,17.17
2022-10-02T00:36:52.133Z,17.08
2022-10-02T00:39:55.331Z,17.02
2022-10-02T00:43:16.328Z,16.96
2022-10-02T00:46:23.588Z,16.86
2022-10-02T00:49:31.739Z,16.78
2022-10-02T00:52:41.754Z,16.70
2022-10-02T00:55:46.592Z,16.60
2022-10-02T00:58:44.201Z,16.50
2022-10-02T01:01:41.866Z,16.39
2022-10-02T01:04:21.250Z,16.31
2022-10-02T01:06:50.177Z,16.21
2022-10-02T01:09:19.350Z,16.12
2022-10-02T01:11:47.967Z,16.02
2022-10-02T01:14:17.124Z,15.93
2022-10-02T01:16:46.816Z,15.84
2022-10-02T01:19:37.845Z,15.75
2022-10-02T01:22:20.407Z,15.63
2022-10-02T01:24:54.159Z,15.52
2022-10-02T01:27:24.059Z,15.43
2022-10-02T01:30:08.121Z,15.34
2022-10-02T01:33:03.367Z,15.25
2022-10-02T01:35:37.548Z,15.15
2022-10-02T01:38:16.539Z,15.03
2022-10-02T01:40:45.754Z,14.92
2022-10-02T01:43:34.464Z,14.83
2022-10-02T01:46:36.593Z,14.69
2022-10-02T01:49:40.334Z,14.59
2022-10-02T01:52:39.316Z,14.45
2022-10-02T01:55:50.443Z,14.35
2022-10-02T01:58:34.077Z,14.19
2022-10-02T02:01:12.905Z,14.06
2022-10-02T02:04:16.285Z,13.94
2022-10-02T02:07:18.180Z,13.84
2022-10-02T02:10:10.457Z,13.71
2022-10-02T02:12:49.824Z,13.61
2022-10-02T02:15:29.279Z,13.51
2022-10-02T02:18:10.666Z,13.40
2022-10-02T02:20:48.856Z,13.29
2022-10-02T02:23:23.454Z,13.16
2022-10-02T02:26:00.417Z,13.07
2022-10-02T02:28:33.164Z,12.95
2022-10-02T02:31:05.919Z,12.83
2022-10-02T02:33:42.537Z,12.73
2022-10-02T02:36:17.183Z,12.63
2022-10-02T02:39:01.291Z,12.47
2022-10-02T02:41:40.047Z,12.35
2022-10-02T02:44:22.081Z,12.31
2022-10-02T02:47:20.558Z,12.23
2022-10-02T02:50:06.405Z,12.15
2022-10-02T02:52:51.351Z,12.07
2022-10-02T02:55:35.075Z,11.97
2022-10-02T02:58:30.217Z,11.90
2022-10-02T03:00:59.356Z,11.85
2022-10-02T03:03:28.137Z,11.78
2022-10-02T03:06:27.808Z,11.69
2022-10-02T03:08:56.570Z,11.64
2022-10-02T03:12:02.298Z,11.59
2022-10-02T03:14:56.365Z,11.49
2022-10-02T03:18:00.269Z,11.38
2022-10-02T03:21:04.655Z,11.30
2022-10-02T03:24:00.830Z,11.19
2022-10-02T03:26:44.180Z,11.08
2022-10-02T03:29:47.933Z,11.03
2022-10-02T03:32:19.132Z,10.95
2022-10-02T03:34:50.359Z,10.90
2022-10-02T03:37:19.536Z,10.85
2022-10-02T03:39:50.678Z,10.80
2022-10-02T03:42:27.199Z,10.77
2022-10-02T03:44:55.872Z,10.72
2022-10-02T03:47:24.562Z,10.67
2022-10-02T03:49:53.178Z,10.62
2022-10-02T03:52:24.267Z,10.52
2022-10-02T03:55:02.158Z,10.42
2022-10-02T03:57:35.616Z,10.32
2022-10-02T04:00:23.771Z,10.23
2022-10-02T04:03:12.012Z,10.14
2022-10-02T04:06:00.776Z,10.07
2022-10-02T04:08:47.073Z,10.01
2022-10-02T04:11:56.163Z,9.93
2022-10-02T04:14:40.583Z,9.86
2022-10-02T04:17:33.183Z,9.74
2022-10-02T04:20:14.165Z,9.64
2022-10-02T04:22:54.348Z,9.60
2022-10-02T04:25:37.805Z,9.57
2022-10-02T04:28:19.345Z,9.53
2022-10-02T04:30:48.169Z,9.44
2022-10-02T04:33:26.389Z,9.39
2022-10-02T04:36:11.517Z,9.35
2022-10-02T04:39:16.109Z,9.32
2022-10-02T04:42:25.154Z,9.28
2022-10-02T04:45:34.362Z,9.21
2022-10-02T04:48:46.412Z,9.17
2022-10-02T04:51:26.742Z,9.08
2022-10-02T04:54:48.097Z,9.02
2022-10-02T04:58:06.996Z,8.97
2022-10-02T05:00:56.775Z,8.86
2022-10-02T05:03:35.746Z,8.76
2022-10-02T05:06:37.773Z,8.71
2022-10-02T05:09:44.483Z,8.67
2022-10-02T05:12:54.946Z,8.63
2022-10-02T05:16:11.129Z,8.60
2022-10-02T05:19:03.285Z,8.48
2022-10-02T05:22:26.481Z,8.39
2022-10-02T05:25:53.267Z,8.33
2022-10-02T05:28:52.245Z,8.31
2022-10-02T05:31:57.324Z,8.27
2022-10-02T05:34:59.491Z,8.26
2022-10-02T05:37:57.189Z,8.21
2022-10-02T05:41:17.237Z,8.17
2022-10-02T05:44:12.895Z,8.18
2022-10-02T05:47:08.679Z,8.15
2022-10-02T05:49:45.103Z,8.13
2022-10-02T05:52:23.888Z,8.10
2022-10-02T05:55:01.279Z,8.09
2022-10-02T05:57:42.550Z,8.05
2022-10-02T06:00:36.372Z,8.03
2022-10-02T06:03:13.042Z,8.02
2022-10-02T06:06:02.409Z,8.00
2022-10-02T06:08:54.157Z,7.97
2022-10-02T06:12:10.140Z,7.99
2022-10-02T06:15:16.155Z,8.02
2022-10-02T06:18:01.575Z,8.03
2022-10-02T06:20:43.463Z,7.99
2022-10-02T06:23:20.817Z,7.93
2022-10-02T06:26:26.416Z,7.83
2022-10-02T06:29:24.920Z,7.78
2022-10-02T06:32:18.891Z,7.73
2022-10-02T06:34:48.310Z,7.69
2022-10-02T06:37:56.953Z,7.65
2022-10-02T06:40:55.637Z,7.61
2022-10-02T06:43:57.464Z,7.57
2022-10-02T06:47:08.147Z,7.57
2022-10-02T06:50:22.910Z,7.56
2022-10-02T06:53:34.847Z,7.45
2022-10-02T06:56:51.673Z,7.24
2022-10-02T07:00:23.694Z,7.16
2022-10-02T07:02:57.813Z,7.12
2022-10-02T07:05:44.143Z,7.08
2022-10-02T07:08:52.625Z,7.02
2022-10-02T07:11:56.268Z,6.95
2022-10-02T07:14:37.528Z,6.83
2022-10-02T07:17:47.809Z,6.72
2022-10-02T07:20:54.177Z,6.70
2022-10-02T07:23:51.673Z,6.67
2022-10-02T07:27:18.400Z,6.70
2022-10-02T07:30:03.656Z,6.71
2022-10-02T07:32:50.003Z,6.70
2022-10-02T07:36:15.865Z,6.73
2022-10-02T07:39:22.700Z,6.76
2022-10-02T07:42:25.946Z,6.78
2022-10-02T07:45:08.028Z,6.78
2022-10-02T07:48:06.200Z,6.74
2022-10-02T07:51:04.529Z,6.64
2022-10-02T07:53:54.496Z,6.52
2022-10-02T07:56:24.933Z,6.38
2022-10-02T07:59:05.201Z,6.35
2022-10-02T08:01:41.450Z,6.34
2022-10-02T08:04:23.959Z,6.28
2022-10-02T08:07:02.336Z,6.28
2022-10-02T08:09:49.607Z,6.29
2022-10-02T08:12:31.018Z,6.34
2022-10-02T08:15:02.540Z,6.44
2022-10-02T08:17:41.312Z,6.51
2022-10-02T08:20:45.217Z,6.44
2022-10-02T08:23:38.080Z,6.43
2022-10-02T08:26:43.416Z,6.38
2022-10-02T08:29:26.937Z,6.32
2022-10-02T08:31:57.446Z,6.29
2022-10-02T08:34:26.901Z,6.23
2022-10-02T08:37:13.671Z,6.22
2022-10-02T08:40:18.532Z,6.19
2022-10-02T08:43:09.000Z,6.18
2022-10-02T08:46:23.894Z,6.17
2022-10-02T08:49:30.394Z,6.15
2022-10-02T08:53:05.702Z,6.19
2022-10-02T08:56:19.178Z,6.23
2022-10-02T08:59:48.328Z,6.30
2022-10-02T09:03:03.063Z,6.36
2022-10-02T09:06:11.974Z,6.39
2022-10-02T09:09:10.798Z,6.38
2022-10-02T09:12:26.818Z,6.36
2022-10-02T09:15:30.063Z,6.32
2022-10-02T09:18:16.528Z,6.28
2022-10-02T09:21:02.599Z,6.21
2022-10-02T09:24:23.600Z,6.20
2022-10-02T09:27:39.666Z,6.18
2022-10-02T09:30:20.790Z,6.20
2022-10-02T09:33:43.731Z,6.23
2022-10-02T09:36:35.063Z,6.21
2022-10-02T09:39:52.903Z,6.21
2022-10-02T09:42:48.815Z,6.18
2022-10-02T09:45:33.649Z,6.14
2022-10-02T09:49:01.679Z,6.09
2022-10-02T09:52:08.857Z,6.06
2022-10-02T09:54:55.711Z,6.03
2022-10-02T09:58:09.471Z,6.03
2022-10-02T10:01:03.519Z,6.04
2022-10-02T10:03:55.610Z,6.02
2022-10-02T10:06:49.821Z,5.97
2022-10-02T10:09:49.202Z,5.93
2022-10-02T10:12:35.647Z,5.90
2022-10-02T10:15:46.513Z,5.88
2022-10-02T10:19:24.086Z,5.86
2022-10-02T10:22:46.617Z,5.86
2022-10-02T10:25:55.642Z,5.85
2022-10-02T10:29:16.922Z,5.85
2022-10-02T10:32:07.118Z,5.82
2022-10-02T10:34:53.015Z,5.82
2022-10-02T10:38:30.325Z,5.81
2022-10-02T10:41:57.933Z,5.77
2022-10-02T10:45:02.864Z,5.68
2022-10-02T10:48:18.040Z,5.67
2022-10-02T10:51:14.635Z,5.66
2022-10-02T10:54:49.044Z,5.61
2022-10-02T10:57:32.038Z,5.59
2022-10-02T11:00:21.469Z,5.53
2022-10-02T11:03:23.115Z,5.52
2022-10-02T11:06:50.706Z,5.51
2022-10-02T11:09:36.952Z,5.47
2022-10-02T11:12:29.855Z,5.46
2022-10-02T11:15:20.115Z,5.44
2022-10-02T11:18:09.947Z,5.42
2022-10-02T11:20:53.830Z,5.40
2022-10-02T11:23:45.485Z,5.37
2022-10-02T11:27:00.470Z,5.29
2022-10-02T11:29:49.034Z,5.24
2022-10-02T11:32:32.152Z,5.20
2022-10-02T11:35:59.052Z,5.14
2022-10-02T11:38:51.423Z,5.11
2022-10-02T11:41:40.412Z,5.13
2022-10-02T11:44:48.296Z,5.16
2022-10-02T11:48:09.455Z,5.18
2022-10-02T11:51:21.128Z,5.17
2022-10-02T11:54:26.690Z,5.12
2022-10-02T11:57:21.993Z,5.07
2022-10-02T12:00:45.754Z,5.02
2022-10-02T12:03:51.229Z,4.99
2022-10-02T12:07:06.842Z,4.99
2022-10-02T12:10:11.331Z,4.97
2022-10-02T12:13:17.397Z,4.96
2022-10-02T12:16:00.667Z,4.95
2022-10-02T12:18:56.837Z,4.95
2022-10-02T12:22:38.120Z,4.95
2022-10-02T12:25:47.358Z,4.95
2022-10-02T12:28:39.291Z,4.90
2022-10-02T12:31:30.217Z,4.88
2022-10-02T12:34:38.792Z,4.83
2022-10-02T12:37:58.416Z,4.78
2022-10-02T12:41:10.037Z,4.75
2022-10-02T12:44:24.537Z,4.69
2022-10-02T12:47:23.138Z,4.68
2022-10-02T12:50:09.258Z,4.66
2022-10-02T12:53:05.880Z,4.67
2022-10-02T12:56:07.817Z,4.70
2022-10-02T12:58:50.362Z,4.72
2022-10-02T13:01:57.288Z,4.74
2022-10-02T13:04:49.868Z,4.75
2022-10-02T13:07:52.431Z,4.71
2022-10-02T13:10:28.683Z,4.67
2022-10-02T13:13:35.806Z,4.63
2022-10-02T13:16:30.245Z,4.60
2022-10-02T13:19:30.832Z,4.59
2022-10-02T13:22:11.548Z,4.58
2022-10-02T13:25:25.955Z,4.56
2022-10-02T13:28:17.799Z,4.53
2022-10-02T13:31:07.059Z,4.49
2022-10-02T13:34:17.579Z,4.50
2022-10-02T13:37:20.051Z,4.54
2022-10-02T13:40:14.238Z,4.57
2022-10-02T13:43:10.960Z,4.60
2022-10-02T13:46:11.578Z,4.60
2022-10-02T13:49:07.995Z,4.60
2022-10-02T13:52:08.383Z,4.59
2022-10-02T13:55:09.028Z,4.56
2022-10-02T13:58:19.177Z,4.53
2022-10-02T14:01:20.002Z,4.50
2022-10-02T14:04:12.472Z,4.50
2022-10-02T14:06:51.899Z,4.47
2022-10-02T14:09:34.903Z,4.45
2022-10-02T14:12:23.780Z,4.44
2022-10-02T14:15:09.159Z,4.47
2022-10-02T14:18:23.074Z,4.48
2022-10-02T14:21:16.562Z,4.53
2022-10-02T14:24:55.067Z,4.52
2022-10-02T14:28:05.492Z,4.55
2022-10-02T14:31:17.089Z,4.61
2022-10-02T14:34:10.447Z,4.62
2022-10-02T14:37:20.844Z,4.60
2022-10-02T14:39:50.782Z,4.54
2022-10-02T14:43:02.234Z,4.51
2022-10-02T14:45:58.920Z,4.47
2022-10-02T14:49:11.381Z,4.44
2022-10-02T14:52:01.192Z,4.39
2022-10-02T14:54:57.905Z,4.39
2022-10-02T14:58:04.788Z,4.38
2022-10-02T15:01:12.294Z,4.42
2022-10-02T15:04:11.469Z,4.42
2022-10-02T15:07:04.981Z,4.39
2022-10-02T15:09:53.569Z,4.41
2022-10-02T15:12:45.241Z,4.41
2022-10-02T15:15:32.545Z,4.42
2022-10-02T15:18:39.929Z,4.43
2022-10-02T15:21:52.176Z,4.46
2022-10-02T15:25:17.741Z,4.49
2022-10-02T15:28:35.781Z,4.54
2022-10-02T15:31:37.355Z,4.62
2022-10-02T15:34:59.882Z,4.66
2022-10-02T15:37:50.785Z,4.75
2022-10-02T15:40:37.486Z,4.79
2022-10-02T15:43:18.303Z,4.84
2022-10-02T15:46:21.325Z,4.93
2022-10-02T15:49:13.101Z,5.05
2022-10-02T15:52:09.746Z,5.23
2022-10-02T15:54:57.625Z,5.39
2022-10-02T15:57:42.919Z,5.57
2022-10-02T16:00:17.785Z,5.72
2022-10-02T16:03:17.718Z,5.86
2022-10-02T16:06:24.206Z,5.99
2022-10-02T16:09:06.205Z,6.09
2022-10-02T16:11:59.139Z,6.20
2022-10-02T16:15:18.622Z,6.31
2022-10-02T16:18:21.366Z,6.41
2022-10-02T16:21:23.089Z,6.51
2022-10-02T16:24:25.037Z,6.64
2022-10-02T16:27:24.746Z,6.77
2022-10-02T16:30:15.584Z,6.93
2022-10-02T16:33:13.496Z,7.06
2022-10-02T16:35:54.081Z,7.21
2022-10-02T16:38:50.985Z,7.34
2022-10-02T16:41:58.463Z,7.47
2022-10-02T16:44:40.690Z,7.59
2022-10-02T16:47:29.881Z,7.69
2022-10-02T16:50:21.728Z,7.79
2022-10-02T16:53:24.274Z,7.89
2022-10-02T16:56:21.785Z,7.98
2022-10-02T16:59:28.727Z,8.13
2022-10-02T17:02:28.428Z,8.25
2022-10-02T17:05:14.061Z,8.38
2022-10-02T17:07:53.476Z,8.50
2022-10-02T17:10:50.874Z,8.64
2022-10-02T17:13:33.463Z,8.77
2022-10-02T17:16:26.317Z,8.86
2022-10-02T17:19:35.908Z,8.99
2022-10-02T17:22:15.531Z,9.09
2022-10-02T17:25:01.190Z,9.18
2022-10-02T17:28:18.190Z,9.24
2022-10-02T17:31:34.808Z,9.35
2022-10-02T17:34:22.596Z,9.44
2022-10-02T17:37:02.786Z,9.52
2022-10-02T17:39:59.111Z,9.63
2022-10-02T17:43:26.749Z,9.74
2022-10-02T17:46:43.075Z,9.86
2022-10-02T17:49:25.061Z,10.01
2022-10-02T17:52:41.900Z,10.14
2022-10-02T17:56:00.505Z,10.29
2022-10-02T17:59:10.997Z,10.41
2022-10-02T18:02:03.919Z,10.52
2022-10-02T18:05:03.038Z,10.63
2022-10-02T18:08:07.867Z,10.76
2022-10-02T18:11:09.151Z,10.84
2022-10-02T18:13:50.801Z,10.98
2022-10-02T18:16:52.648Z,11.09
2022-10-02T18:19:50.081Z,11.11
2022-10-02T18:22:45.933Z,11.14
2022-10-02T18:26:25.472Z,11.16
2022-10-02T18:29:13.399Z,11.21
2022-10-02T18:32:19.141Z,11.26
2022-10-02T18:35:22.587Z,11.37
2022-10-02T18:38:13.168Z,11.42
2022-10-02T18:41:21.626Z,11.48
2022-10-02T18:44:15.134Z,11.62
2022-10-02T18:47:27.985Z,11.68
2022-10-02T18:50:39.891Z,11.76
2022-10-02T18:54:02.699Z,11.88
2022-10-02T18:57:15.536Z,12.02
2022-10-02T18:59:58.471Z,12.20
2022-10-02T19:03:15.708Z,12.35
2022-10-02T19:06:10.619Z,12.49
2022-10-02T19:09:14.702Z,12.54
2022-10-02T19:12:22.583Z,12.59
2022-10-02T19:14:56.410Z,12.68
2022-10-02T19:17:28.185Z,12.82
2022-10-02T19:19:58.207Z,12.98
2022-10-02T19:22:28.154Z,13.09
2022-10-02T19:25:14.342Z,13.14
2022-10-02T19:27:57.668Z,13.22
2022-10-02T19:30:31.667Z,13.29
2022-10-02T19:33:12.761Z,13.35
2022-10-02T19:35:44.794Z,13.42
2022-10-02T19:38:51.968Z,13.49
2022-10-02T19:41:23.881Z,13.55
2022-10-02T19:43:56.916Z,13.62
2022-10-02T19:46:44.441Z,13.71
2022-10-02T19:49:31.395Z,13.79
2022-10-02T19:52:00.182Z,13.91
2022-10-02T19:54:38.618Z,13.99
2022-10-02T19:57:30.278Z,14.06
2022-10-02T20:00:02.321Z,14.13
2022-10-02T20:02:46.599Z,14.22
2022-10-02T20:05:29.008Z,14.34
2022-10-02T20:08:08.612Z,14.42
2022-10-02T20:10:44.272Z,14.58
2022-10-02T20:13:36.275Z,14.76
2022-10-02T20:16:46.034Z,14.86
2022-10-02T20:19:27.685Z,14.95
2022-10-02T20:22:00.073Z,14.99
2022-10-02T20:24:39.864Z,15.10
2022-10-02T20:27:22.541Z,15.20
2022-10-02T20:30:00.504Z,15.21
2022-10-02T20:32:35.640Z,15.27
2022-10-02T20:35:40.925Z,15.42
2022-10-02T20:38:32.109Z,15.53
2022-10-02T20:41:12.791Z,15.67
2022-10-02T20:44:05.026Z,15.77
2022-10-02T20:47:22.764Z,15.80
2022-10-02T20:50:27.838Z,15.97
2022-10-02T20:53:17.561Z,16.27
2022-10-02T20:56:39.743Z,16.36
2022-10-02T20:59:53.940Z,16.52
2022-10-02T21:02:40.528Z,16.62
2022-10-02T21:05:42.291Z,16.64
2022-10-02T21:09:02.316Z,16.83
2022-10-02T21:11:52.218Z,17.03
2022-10-02T21:14:35.902Z,17.14
2022-10-02T21:17:31.798Z,17.25
2022-10-02T21:20:58.955Z,17.34
2022-10-02T21:24:14.750Z,17.40
2022-10-02T21:27:37.019Z,17.45
2022-10-02T21:30:20.870Z,17.47
2022-10-02T21:33:14.556Z,17.58
2022-10-02T21:35:58.174Z,17.65
2022-10-02T21:39:02.463Z,17.69
2022-10-02T21:42:04.039Z,17.76
2022-10-02T21:45:14.286Z,17.83
2022-10-02T21:48:14.429Z,17.92
2022-10-02T21:51:12.415Z,18.04
2022-10-02T21:53:53.426Z,18.12
2022-10-02T21:56:32.925Z,18.22
2022-10-02T21:59:48.697Z,18.34
2022-10-02T22:02:55.273Z,18.36
2022-10-02T22:06:18.861Z,18.39
2022-10-02T22:09:32.245Z,18.45
2022-10-02T22:12:19.124Z,18.46
2022-10-02T22:15:34.882Z,18.48
2022-10-02T22:19:08.257Z,18.56
2022-10-02T22:22:11.517Z,18.63
2022-10-02T22:25:02.767Z,18.72
2022-10-02T22:28:14.108Z,18.81
2022-10-02T22:31:17.017Z,18.93
2022-10-02T22:34:22.458Z,19.06
2022-10-02T22:37:18.952Z,19.07
2022-10-02T22:40:30.974Z,19.08
2022-10-02T22:43:09.331Z,19.15
2022-10-02T22:45:53.422Z,19.22
2022-10-02T22:48:36.774Z,19.22
2022-10-02T22:51:21.254Z,19.18
2022-10-02T22:54:15.419Z,19.15
2022-10-02T22:57:02.750Z,19.15
2022-10-02T22:59:47.100Z,19.18
2022-10-02T23:02:24.290Z,19.27
2022-10-02T23:05:27.953Z,19.28
2022-10-02T23:08:06.475Z,19.24
2022-10-02T23:10:56.080Z,19.21
2022-10-02T23:13:37.217Z,19.23
2022-10-02T23:16:35.571Z,19.26
2022-10-02T23:19:23.278Z,19.26
2022-10-02T23:21:58.496Z,19.22
2022-10-02T23:25:18.624Z,19.16
2022-10-02T23:27:55.553Z,19.06
2022-10-02T23:30:26.096Z,18.98
2022-10-02T23:33:04.111Z,18.93
2022-10-02T23:35:57.434Z,18.85
2022-10-02T23:38:46.033Z,18.83
2022-10-02T23:41:48.933Z,18.81
2022-10-02T23:44:41.933Z,18.79
2022-10-02T23:47:35.563Z,18.77
2022-10-02T23:50:20.042Z,18.75
2022-10-02T23:54:01.630Z,18.70
2022-10-02T23:56:51.990Z,18.66
2022-10-02T23:59:44.540Z,18.64
